This is the latest recevied weather packets stored in our database for station/object OE-11049. If no packets are shown the sender has not sent any weather packets the latest 10 day(s).
| Time | Temp. | Humidity | Pressure | Rain* | Wind** | Luminosity | Snow |
|---|---|---|---|---|---|---|---|
| 1787851517 | 26.11° C | 54% | 1011.2 hPa | 0 mm | - | 41 W/m² | - |
| 1787850690 | 26.67° C | 54% | 1011.3 hPa | 0 mm | - | 58 W/m² | - |
| 1787850316 | 26.67° C | 53% | 1011.1 hPa | 0 mm | - | 64 W/m² | - |
| 1787849717 | 26.67° C | 53% | 1011.3 hPa | 0 mm | - | 64 W/m² | - |
| 1787848890 | 27.22° C | 51% | 1011.2 hPa | 0 mm | - | 76 W/m² | - |
| 1787848517 | 27.22° C | 51% | 1011.4 hPa | 0 mm | - | 82 W/m² | - |
| 1787847917 | 27.78° C | 51% | 1011.5 hPa | 0 mm | - | 88 W/m² | - |
| 1787847090 | 27.78° C | 49% | 1011.4 hPa | 0 mm | - | 105 W/m² | - |
| 1787846717 | 28.33° C | 49% | 1011.4 hPa | 0 mm | - | 134 W/m² | - |
| 1787846117 | 28.33° C | 49% | 1011.3 hPa | 0 mm | - | 164 W/m² | - |
| 1787845289 | 28.89° C | 48% | 1011.3 hPa | 0 mm | - | 210 W/m² | - |
| 1787844917 | 28.89° C | 47% | 1011.4 hPa | 0 mm | - | 234 W/m² | - |
| 1787844317 | 29.44° C | 47% | 1011.3 hPa | 0 mm | - | 345 W/m² | - |
| 1787843490 | 29.44° C | 46% | 1011.3 hPa | 0 mm | - | 251 W/m² | - |
| 1787843117 | 30° C | 45% | 1011.2 hPa | 0 mm | - | 333 W/m² | - |
| 1787842517 | 30.56° C | 44% | 1011.2 hPa | 0 mm | - | 450 W/m² | - |
| 1787841689 | 30.56° C | 44% | 1011.2 hPa | 0 mm | - | 491 W/m² | - |
| 1787841317 | 30.56° C | 42% | 1011.2 hPa | 0 mm | - | 526 W/m² | - |
| 1787839890 | 29.44° C | 44% | 1011.5 hPa | 0 mm | - | 532 W/m² | - |
| 1787839517 | 30° C | 45% | 1011.4 hPa | 0 mm | - | 538 W/m² | - |
| 1787838917 | 30° C | 44% | 1011.5 hPa | 0 mm | - | 409 W/m² | - |
| 1787838090 | 30° C | 45% | 1011.4 hPa | 0 mm | - | 579 W/m² | - |
| 1787837717 | 30° C | 44% | 1011.5 hPa | 0 mm | - | 602 W/m² | - |
| 1787837117 | 30° C | 45% | 1011.5 hPa | 0 mm | - | 649 W/m² | - |
| 1787836290 | 29.44° C | 44% | 1011.8 hPa | 0 mm | - | 660 W/m² | - |
* Rain latest hour (hover to see other rain measurements)
** Current wind speed in m/s (hover to see current wind gust speed)